Elrosa, Minnesota
Current Conditions -  °F | °C
As of 5:32 PM on Saturday 22 Nov 2014 (Local Time) from KD39 Reporting Station
Moderate Fog Moderate Fog  
Wind Chill: 23°   Ceiling: 200
Heat Index: 32°   Visibility: 0.5mi
Dew Point: 32°   Wind: 12mph
Humidity: 99%   Direction: 140°SE
Pressure: 29.53"   Gusts: NA
Location:  45.56°N, 94.95°W
Report Text: KD39 222332Z AUTO 14010KT 1/2SM FG OVC002 00/00 A2953 RMK AO2 T00001001
Loading
Personal Weather Stations






























Interactive Weather Map New forecast layout! Learn more

10-Day Weather Forecast

Advertisements
Track Severe Weather on mobile